EGYM - Marham
Distance from station: E 5mi, 14km
Updated: 02/20/2018 2:50pm
Haze, Partly cloudy
Haze, Partly cloudy
 Wind from NE
Wind: NE 3 mph , 6 km/h
Temperature: 37°F , 3°C
Dew Point: 34°F , 1°C
Humidity: 87%
Barometer: 30.3 inHg , 1026 hPa
Summary: Haze
Clouds: Partly Cloudy
Visibility: 3 miles , 5 km
Cloud details: Partly Cloudy 1200 ft
Partly Cloudy 2000 ft
2018/02/20 22:50 EGYM 202250Z 04003KT 5000 HZ SCT012 SCT020 03/01 Q1026 GRN